sensor_id;sensor_type;location;lat;lon;timestamp;temperature;humidity
21928;DHT22;11128;51.096;17.190;2023-05-19T00:03:06;11.20;1.00
21928;DHT22;11128;51.096;17.190;2023-05-19T00:08:09;11.10;1.00
21928;DHT22;11128;51.096;17.190;2023-05-19T00:13:11;11.10;1.00
21928;DHT22;11128;51.096;17.190;2023-05-19T00:18:13;11.00;9.40
21928;DHT22;11128;51.096;17.190;2023-05-19T00:23:14;10.90;99.90
21928;DHT22;11128;51.096;17.190;2023-05-19T00:28:15;10.90;58.60
21928;DHT22;11128;51.096;17.190;2023-05-19T00:33:17;10.80;99.90
21928;DHT22;11128;51.096;17.190;2023-05-19T00:38:18;10.70;99.90
21928;DHT22;11128;51.096;17.190;2023-05-19T00:43:20;10.60;99.90
21928;DHT22;11128;51.096;17.190;2023-05-19T00:48:21;10.50;1.00
21928;DHT22;11128;51.096;17.190;2023-05-19T00:53:23;10.30;1.00
21928;DHT22;11128;51.096;17.190;2023-05-19T00:58:25;10.30;1.00
21928;DHT22;11128;51.096;17.190;2023-05-19T01:03:34;10.20;1.00
21928;DHT22;11128;51.096;17.190;2023-05-19T01:08:36;10.20;1.00
21928;DHT22;11128;51.096;17.190;2023-05-19T01:13:38;10.10;99.90
21928;DHT22;11128;51.096;17.190;2023-05-19T01:18:54;10.00;99.90
21928;DHT22;11128;51.096;17.190;2023-05-19T01:34:48;10.00;1.00
21928;DHT22;11128;51.096;17.190;2023-05-19T01:39:51;10.00;1.00
21928;DHT22;11128;51.096;17.190;2023-05-19T01:44:53;10.00;1.00
21928;DHT22;11128;51.096;17.190;2023-05-19T01:49:55;10.00;1.00
21928;DHT22;11128;51.096;17.190;2023-05-19T01:54:57;10.00;1.00
21928;DHT22;11128;51.096;17.190;2023-05-19T02:05:08;9.90;1.00
21928;DHT22;11128;51.096;17.190;2023-05-19T02:10:18;9.80;1.00
21928;DHT22;11128;51.096;17.190;2023-05-19T02:15:24;9.80;1.00
21928;DHT22;11128;51.096;17.190;2023-05-19T02:20:30;9.80;1.00
21928;DHT22;11128;51.096;17.190;2023-05-19T02:25:31;9.70;1.00
21928;DHT22;11128;51.096;17.190;2023-05-19T02:30:32;9.70;1.00
21928;DHT22;11128;51.096;17.190;2023-05-19T02:35:33;9.70;1.00
21928;DHT22;11128;51.096;17.190;2023-05-19T02:40:35;9.70;47.70
21928;DHT22;11128;51.096;17.190;2023-05-19T02:45:36;9.70;99.90
21928;DHT22;11128;51.096;17.190;2023-05-19T02:50:37;9.70;1.00
21928;DHT22;11128;51.096;17.190;2023-05-19T02:55:41;9.70;1.00
21928;DHT22;11128;51.096;17.190;2023-05-19T03:00:43;9.70;1.00
21928;DHT22;11128;51.096;17.190;2023-05-19T03:05:45;9.70;1.00
21928;DHT22;11128;51.096;17.190;2023-05-19T03:10:47;9.80;1.00
21928;DHT22;11128;51.096;17.190;2023-05-19T03:15:49;9.80;1.00
21928;DHT22;11128;51.096;17.190;2023-05-19T03:20:51;9.70;99.90
21928;DHT22;11128;51.096;17.190;2023-05-19T03:25:54;9.80;94.50
21928;DHT22;11128;51.096;17.190;2023-05-19T03:30:56;9.90;99.90
21928;DHT22;11128;51.096;17.190;2023-05-19T03:35:57;9.90;99.90
21928;DHT22;11128;51.096;17.190;2023-05-19T03:40:59;10.00;1.00
21928;DHT22;11128;51.096;17.190;2023-05-19T03:46:00;10.00;1.00
21928;DHT22;11128;51.096;17.190;2023-05-19T03:51:02;10.00;1.00
21928;DHT22;11128;51.096;17.190;2023-05-19T03:56:04;10.10;1.00
21928;DHT22;11128;51.096;17.190;2023-05-19T04:01:07;10.10;99.90
21928;DHT22;11128;51.096;17.190;2023-05-19T04:06:08;10.20;99.90
21928;DHT22;11128;51.096;17.190;2023-05-19T04:11:10;10.30;1.00
21928;DHT22;11128;51.096;17.190;2023-05-19T04:16:12;10.40;1.00
21928;DHT22;11128;51.096;17.190;2023-05-19T04:21:14;10.40;1.00
21928;DHT22;11128;51.096;17.190;2023-05-19T04:26:15;10.60;99.90
21928;DHT22;11128;51.096;17.190;2023-05-19T04:31:18;10.60;99.90
21928;DHT22;11128;51.096;17.190;2023-05-19T04:36:20;10.70;99.90
21928;DHT22;11128;51.096;17.190;2023-05-19T04:41:22;10.80;99.90
21928;DHT22;11128;51.096;17.190;2023-05-19T04:46:23;10.80;1.00
21928;DHT22;11128;51.096;17.190;2023-05-19T04:51:27;10.90;1.00
21928;DHT22;11128;51.096;17.190;2023-05-19T04:56:31;11.00;1.00
21928;DHT22;11128;51.096;17.190;2023-05-19T05:01:32;11.00;99.90
21928;DHT22;11128;51.096;17.190;2023-05-19T05:06:33;11.00;99.90
21928;DHT22;11128;51.096;17.190;2023-05-19T05:11:38;11.00;99.90
21928;DHT22;11128;51.096;17.190;2023-05-19T05:16:40;11.10;1.00
21928;DHT22;11128;51.096;17.190;2023-05-19T05:21:42;11.10;99.90
21928;DHT22;11128;51.096;17.190;2023-05-19T05:26:44;11.20;99.90
21928;DHT22;11128;51.096;17.190;2023-05-19T05:31:45;11.20;99.90
21928;DHT22;11128;51.096;17.190;2023-05-19T05:36:47;11.20;99.90
21928;DHT22;11128;51.096;17.190;2023-05-19T05:41:48;11.30;1.00
21928;DHT22;11128;51.096;17.190;2023-05-19T05:46:49;11.40;99.90
21928;DHT22;11128;51.096;17.190;2023-05-19T05:51:51;11.60;1.00
21928;DHT22;11128;51.096;17.190;2023-05-19T05:56:53;11.80;1.00
21928;DHT22;11128;51.096;17.190;2023-05-19T06:01:54;11.90;99.90
21928;DHT22;11128;51.096;17.190;2023-05-19T06:06:56;12.00;99.90
21928;DHT22;11128;51.096;17.190;2023-05-19T06:12:01;12.10;99.90
21928;DHT22;11128;51.096;17.190;2023-05-19T06:17:02;12.20;1.00
21928;DHT22;11128;51.096;17.190;2023-05-19T06:22:03;12.20;1.00
21928;DHT22;11128;51.096;17.190;2023-05-19T06:27:05;12.30;1.00
21928;DHT22;11128;51.096;17.190;2023-05-19T06:32:07;12.20;1.00
21928;DHT22;11128;51.096;17.190;2023-05-19T06:37:08;12.20;1.00
21928;DHT22;11128;51.096;17.190;2023-05-19T06:42:10;12.20;99.90
21928;DHT22;11128;51.096;17.190;2023-05-19T06:47:11;12.20;1.00
21928;DHT22;11128;51.096;17.190;2023-05-19T06:52:13;12.20;1.00
21928;DHT22;11128;51.096;17.190;2023-05-19T06:57:14;12.20;1.00
21928;DHT22;11128;51.096;17.190;2023-05-19T07:02:15;12.20;99.90
21928;DHT22;11128;51.096;17.190;2023-05-19T07:07:17;12.30;1.00
21928;DHT22;11128;51.096;17.190;2023-05-19T07:12:19;12.30;99.90
21928;DHT22;11128;51.096;17.190;2023-05-19T07:17:21;12.30;1.00
21928;DHT22;11128;51.096;17.190;2023-05-19T07:22:22;12.30;1.00
21928;DHT22;11128;51.096;17.190;2023-05-19T07:27:24;12.40;1.00
21928;DHT22;11128;51.096;17.190;2023-05-19T07:32:25;12.40;99.90
21928;DHT22;11128;51.096;17.190;2023-05-19T07:37:27;12.40;93.60
21928;DHT22;11128;51.096;17.190;2023-05-19T07:42:28;12.40;99.90
21928;DHT22;11128;51.096;17.190;2023-05-19T07:47:29;12.30;99.90
21928;DHT22;11128;51.096;17.190;2023-05-19T07:52:31;12.40;1.00
21928;DHT22;11128;51.096;17.190;2023-05-19T07:57:32;12.50;1.00
21928;DHT22;11128;51.096;17.190;2023-05-19T08:02:33;12.50;1.00
21928;DHT22;11128;51.096;17.190;2023-05-19T08:07:35;12.50;1.00
21928;DHT22;11128;51.096;17.190;2023-05-19T08:12:37;12.60;1.00
21928;DHT22;11128;51.096;17.190;2023-05-19T08:17:38;12.70;1.00
21928;DHT22;11128;51.096;17.190;2023-05-19T08:22:40;12.90;1.00
21928;DHT22;11128;51.096;17.190;2023-05-19T08:27:41;13.00;1.00
21928;DHT22;11128;51.096;17.190;2023-05-19T08:32:42;13.10;99.90
21928;DHT22;11128;51.096;17.190;2023-05-19T08:37:44;13.20;99.90
21928;DHT22;11128;51.096;17.190;2023-05-19T08:42:46;13.30;99.90
21928;DHT22;11128;51.096;17.190;2023-05-19T08:47:48;13.50;1.00
21928;DHT22;11128;51.096;17.190;2023-05-19T08:52:54;13.60;1.00
21928;DHT22;11128;51.096;17.190;2023-05-19T08:57:58;13.70;99.90
21928;DHT22;11128;51.096;17.190;2023-05-19T09:03:01;13.90;99.90
21928;DHT22;11128;51.096;17.190;2023-05-19T09:08:04;14.00;99.90
21928;DHT22;11128;51.096;17.190;2023-05-19T09:13:06;14.00;99.90
21928;DHT22;11128;51.096;17.190;2023-05-19T09:18:09;14.10;27.30
21928;DHT22;11128;51.096;17.190;2023-05-19T09:23:16;14.00;99.90
21928;DHT22;11128;51.096;17.190;2023-05-19T09:28:31;14.00;99.10
21928;DHT22;11128;51.096;17.190;2023-05-19T09:33:37;14.00;1.00
21928;DHT22;11128;51.096;17.190;2023-05-19T09:38:39;13.90;99.90
21928;DHT22;11128;51.096;17.190;2023-05-19T09:43:41;14.20;99.90
21928;DHT22;11128;51.096;17.190;2023-05-19T09:48:43;14.50;1.30
21928;DHT22;11128;51.096;17.190;2023-05-19T09:53:45;14.70;1.00
21928;DHT22;11128;51.096;17.190;2023-05-19T09:58:47;14.90;1.00
21928;DHT22;11128;51.096;17.190;2023-05-19T10:03:49;14.90;1.00
21928;DHT22;11128;51.096;17.190;2023-05-19T10:08:51;14.70;1.00
21928;DHT22;11128;51.096;17.190;2023-05-19T10:13:53;14.60;1.00
21928;DHT22;11128;51.096;17.190;2023-05-19T10:18:55;14.40;1.00
21928;DHT22;11128;51.096;17.190;2023-05-19T10:23:57;14.40;56.10
21928;DHT22;11128;51.096;17.190;2023-05-19T10:28:59;15.30;99.90
21928;DHT22;11128;51.096;17.190;2023-05-19T10:39:28;14.60;1.00
21928;DHT22;11128;51.096;17.190;2023-05-19T10:50:09;14.60;1.00
21928;DHT22;11128;51.096;17.190;2023-05-19T10:55:44;14.50;99.90
21928;DHT22;11128;51.096;17.190;2023-05-19T11:00:59;14.50;1.00
21928;DHT22;11128;51.096;17.190;2023-05-19T11:06:24;14.70;99.90
21928;DHT22;11128;51.096;17.190;2023-05-19T11:11:41;14.60;1.00
21928;DHT22;11128;51.096;17.190;2023-05-19T11:16:48;14.60;1.00
21928;DHT22;11128;51.096;17.190;2023-05-19T11:21:51;14.40;1.00
21928;DHT22;11128;51.096;17.190;2023-05-19T11:26:56;14.30;99.90
21928;DHT22;11128;51.096;17.190;2023-05-19T11:31:58;14.20;99.90
21928;DHT22;11128;51.096;17.190;2023-05-19T11:37:00;14.20;99.90
21928;DHT22;11128;51.096;17.190;2023-05-19T11:42:02;14.10;1.00
21928;DHT22;11128;51.096;17.190;2023-05-19T11:47:04;14.10;99.90
21928;DHT22;11128;51.096;17.190;2023-05-19T11:52:06;14.20;99.90
21928;DHT22;11128;51.096;17.190;2023-05-19T11:57:08;14.20;99.90
21928;DHT22;11128;51.096;17.190;2023-05-19T12:02:20;14.20;99.90
21928;DHT22;11128;51.096;17.190;2023-05-19T12:07:23;14.40;1.00
21928;DHT22;11128;51.096;17.190;2023-05-19T12:12:25;14.40;18.10
21928;DHT22;11128;51.096;17.190;2023-05-19T12:17:26;14.40;99.90
21928;DHT22;11128;51.096;17.190;2023-05-19T12:22:28;14.30;99.90
21928;DHT22;11128;51.096;17.190;2023-05-19T12:27:29;14.30;1.00
21928;DHT22;11128;51.096;17.190;2023-05-19T12:32:35;14.30;99.90
21928;DHT22;11128;51.096;17.190;2023-05-19T12:37:42;14.20;99.90
21928;DHT22;11128;51.096;17.190;2023-05-19T12:42:45;14.20;1.00
21928;DHT22;11128;51.096;17.190;2023-05-19T12:47:47;14.10;1.00
21928;DHT22;11128;51.096;17.190;2023-05-19T12:52:49;14.10;1.00
21928;DHT22;11128;51.096;17.190;2023-05-19T12:57:53;14.20;1.00
21928;DHT22;11128;51.096;17.190;2023-05-19T13:02:59;14.50;1.00
21928;DHT22;11128;51.096;17.190;2023-05-19T13:08:04;14.60;99.90
21928;DHT22;11128;51.096;17.190;2023-05-19T13:13:07;14.70;99.90
21928;DHT22;11128;51.096;17.190;2023-05-19T13:18:11;14.70;99.90
21928;DHT22;11128;51.096;17.190;2023-05-19T13:23:13;14.60;1.00
21928;DHT22;11128;51.096;17.190;2023-05-19T13:28:15;14.50;99.90
21928;DHT22;11128;51.096;17.190;2023-05-19T13:33:16;14.50;1.00
21928;DHT22;11128;51.096;17.190;2023-05-19T13:38:20;14.70;99.90
21928;DHT22;11128;51.096;17.190;2023-05-19T13:43:22;14.80;99.90
21928;DHT22;11128;51.096;17.190;2023-05-19T13:48:23;14.90;99.90
21928;DHT22;11128;51.096;17.190;2023-05-19T13:53:25;14.90;99.90
21928;DHT22;11128;51.096;17.190;2023-05-19T13:58:28;14.90;99.90
21928;DHT22;11128;51.096;17.190;2023-05-19T14:03:29;14.80;99.90
21928;DHT22;11128;51.096;17.190;2023-05-19T14:08:31;14.60;99.90
21928;DHT22;11128;51.096;17.190;2023-05-19T14:13:32;14.50;1.00
21928;DHT22;11128;51.096;17.190;2023-05-19T14:18:34;14.40;1.00
21928;DHT22;11128;51.096;17.190;2023-05-19T14:23:35;14.40;1.00
21928;DHT22;11128;51.096;17.190;2023-05-19T14:28:37;14.40;1.00
21928;DHT22;11128;51.096;17.190;2023-05-19T14:33:42;14.40;1.00
21928;DHT22;11128;51.096;17.190;2023-05-19T14:38:43;14.40;1.00
21928;DHT22;11128;51.096;17.190;2023-05-19T14:43:44;14.50;1.00
21928;DHT22;11128;51.096;17.190;2023-05-19T14:48:46;14.60;1.00
21928;DHT22;11128;51.096;17.190;2023-05-19T14:53:48;14.80;1.00
21928;DHT22;11128;51.096;17.190;2023-05-19T14:58:50;14.90;99.90
21928;DHT22;11128;51.096;17.190;2023-05-19T15:03:51;15.00;99.90
21928;DHT22;11128;51.096;17.190;2023-05-19T15:08:53;15.00;99.90
21928;DHT22;11128;51.096;17.190;2023-05-19T15:13:54;15.00;99.90
21928;DHT22;11128;51.096;17.190;2023-05-19T15:18:56;15.10;99.90
21928;DHT22;11128;51.096;17.190;2023-05-19T15:23:57;15.10;99.90
21928;DHT22;11128;51.096;17.190;2023-05-19T15:28:58;15.10;99.90
21928;DHT22;11128;51.096;17.190;2023-05-19T15:34:00;15.00;99.90
21928;DHT22;11128;51.096;17.190;2023-05-19T15:39:01;15.00;99.90
21928;DHT22;11128;51.096;17.190;2023-05-19T15:44:03;15.00;99.90
21928;DHT22;11128;51.096;17.190;2023-05-19T15:49:07;14.90;99.90
21928;DHT22;11128;51.096;17.190;2023-05-19T15:54:08;14.90;96.90
21928;DHT22;11128;51.096;17.190;2023-05-19T15:59:10;15.00;99.90
21928;DHT22;11128;51.096;17.190;2023-05-19T16:04:11;14.90;99.90
21928;DHT22;11128;51.096;17.190;2023-05-19T16:09:13;14.90;1.00
21928;DHT22;11128;51.096;17.190;2023-05-19T16:14:14;15.00;99.90
21928;DHT22;11128;51.096;17.190;2023-05-19T16:19:16;15.00;99.90
21928;DHT22;11128;51.096;17.190;2023-05-19T16:24:17;14.90;99.90
21928;DHT22;11128;51.096;17.190;2023-05-19T16:29:18;14.90;99.90
21928;DHT22;11128;51.096;17.190;2023-05-19T16:34:20;14.90;99.90
21928;DHT22;11128;51.096;17.190;2023-05-19T16:39:21;14.80;1.00
21928;DHT22;11128;51.096;17.190;2023-05-19T16:44:22;14.70;99.90
21928;DHT22;11128;51.096;17.190;2023-05-19T16:49:24;14.60;1.00
21928;DHT22;11128;51.096;17.190;2023-05-19T16:54:27;14.60;1.00
21928;DHT22;11128;51.096;17.190;2023-05-19T16:59:28;14.50;1.00
21928;DHT22;11128;51.096;17.190;2023-05-19T17:04:30;14.50;1.00
21928;DHT22;11128;51.096;17.190;2023-05-19T17:09:43;14.40;1.00
21928;DHT22;11128;51.096;17.190;2023-05-19T17:14:44;14.40;1.00
21928;DHT22;11128;51.096;17.190;2023-05-19T17:19:46;14.30;1.00
21928;DHT22;11128;51.096;17.190;2023-05-19T17:24:47;14.20;99.90
21928;DHT22;11128;51.096;17.190;2023-05-19T17:29:49;14.10;99.90
21928;DHT22;11128;51.096;17.190;2023-05-19T17:34:50;14.10;99.90
21928;DHT22;11128;51.096;17.190;2023-05-19T17:39:52;14.00;1.00
21928;DHT22;11128;51.096;17.190;2023-05-19T17:44:53;14.00;1.00
21928;DHT22;11128;51.096;17.190;2023-05-19T17:49:55;14.00;1.00
21928;DHT22;11128;51.096;17.190;2023-05-19T17:54:56;13.90;1.00
21928;DHT22;11128;51.096;17.190;2023-05-19T17:59:58;13.90;1.00
21928;DHT22;11128;51.096;17.190;2023-05-19T18:05:00;13.80;1.00
21928;DHT22;11128;51.096;17.190;2023-05-19T18:10:03;13.70;1.00
21928;DHT22;11128;51.096;17.190;2023-05-19T18:15:05;13.70;1.00
21928;DHT22;11128;51.096;17.190;2023-05-19T18:20:07;13.60;1.00
21928;DHT22;11128;51.096;17.190;2023-05-19T18:25:08;13.60;67.80
21928;DHT22;11128;51.096;17.190;2023-05-19T18:30:10;13.60;99.90
21928;DHT22;11128;51.096;17.190;2023-05-19T18:35:12;13.60;99.90
21928;DHT22;11128;51.096;17.190;2023-05-19T18:40:13;13.60;10.10
21928;DHT22;11128;51.096;17.190;2023-05-19T18:45:14;13.50;99.90
21928;DHT22;11128;51.096;17.190;2023-05-19T18:50:16;13.50;99.90
21928;DHT22;11128;51.096;17.190;2023-05-19T18:55:17;13.50;99.90
21928;DHT22;11128;51.096;17.190;2023-05-19T19:00:19;13.40;1.00
21928;DHT22;11128;51.096;17.190;2023-05-19T19:05:20;13.40;1.00
21928;DHT22;11128;51.096;17.190;2023-05-19T19:10:22;13.40;1.00
21928;DHT22;11128;51.096;17.190;2023-05-19T19:15:23;13.40;1.00
21928;DHT22;11128;51.096;17.190;2023-05-19T19:20:25;13.30;1.00
21928;DHT22;11128;51.096;17.190;2023-05-19T19:25:26;13.30;1.00
21928;DHT22;11128;51.096;17.190;2023-05-19T19:30:28;13.30;1.00
21928;DHT22;11128;51.096;17.190;2023-05-19T19:35:29;13.20;1.00
21928;DHT22;11128;51.096;17.190;2023-05-19T19:40:31;13.30;99.90
21928;DHT22;11128;51.096;17.190;2023-05-19T19:45:32;13.20;99.90
21928;DHT22;11128;51.096;17.190;2023-05-19T19:50:34;13.20;99.90
21928;DHT22;11128;51.096;17.190;2023-05-19T19:55:36;13.20;99.90
21928;DHT22;11128;51.096;17.190;2023-05-19T20:00:38;13.20;7.90
21928;DHT22;11128;51.096;17.190;2023-05-19T20:05:39;13.20;99.90
21928;DHT22;11128;51.096;17.190;2023-05-19T20:10:41;13.10;99.90
21928;DHT22;11128;51.096;17.190;2023-05-19T20:15:43;13.10;99.90
21928;DHT22;11128;51.096;17.190;2023-05-19T20:20:44;13.20;59.70
21928;DHT22;11128;51.096;17.190;2023-05-19T20:25:46;13.20;1.00
21928;DHT22;11128;51.096;17.190;2023-05-19T20:30:47;13.10;99.90
21928;DHT22;11128;51.096;17.190;2023-05-19T20:35:49;13.20;71.00
21928;DHT22;11128;51.096;17.190;2023-05-19T20:40:50;13.20;87.00
21928;DHT22;11128;51.096;17.190;2023-05-19T20:45:52;13.10;99.90
21928;DHT22;11128;51.096;17.190;2023-05-19T20:50:53;13.10;99.90
21928;DHT22;11128;51.096;17.190;2023-05-19T20:55:55;13.10;99.90
21928;DHT22;11128;51.096;17.190;2023-05-19T21:00:56;13.10;99.90
21928;DHT22;11128;51.096;17.190;2023-05-19T21:05:58;13.10;99.90
21928;DHT22;11128;51.096;17.190;2023-05-19T21:11:00;13.10;99.90
21928;DHT22;11128;51.096;17.190;2023-05-19T21:16:02;13.10;99.90
21928;DHT22;11128;51.096;17.190;2023-05-19T21:21:03;13.00;1.00
21928;DHT22;11128;51.096;17.190;2023-05-19T21:26:05;13.00;99.90
21928;DHT22;11128;51.096;17.190;2023-05-19T21:31:07;13.00;1.00
21928;DHT22;11128;51.096;17.190;2023-05-19T21:36:08;13.00;1.00
21928;DHT22;11128;51.096;17.190;2023-05-19T21:41:10;13.00;1.00
21928;DHT22;11128;51.096;17.190;2023-05-19T21:46:11;13.00;1.00
21928;DHT22;11128;51.096;17.190;2023-05-19T21:51:13;12.90;1.00
21928;DHT22;11128;51.096;17.190;2023-05-19T21:56:14;12.90;99.90
21928;DHT22;11128;51.096;17.190;2023-05-19T22:01:17;12.90;1.00
21928;DHT22;11128;51.096;17.190;2023-05-19T22:06:19;12.90;1.00
21928;DHT22;11128;51.096;17.190;2023-05-19T22:11:20;12.90;1.00
21928;DHT22;11128;51.096;17.190;2023-05-19T22:16:22;12.90;47.00
21928;DHT22;11128;51.096;17.190;2023-05-19T22:21:23;12.90;1.00
21928;DHT22;11128;51.096;17.190;2023-05-19T22:26:24;12.90;1.00
21928;DHT22;11128;51.096;17.190;2023-05-19T22:31:27;12.90;99.90
21928;DHT22;11128;51.096;17.190;2023-05-19T22:36:29;12.90;5.80
21928;DHT22;11128;51.096;17.190;2023-05-19T22:41:31;12.90;1.00
21928;DHT22;11128;51.096;17.190;2023-05-19T22:46:32;12.80;99.90
21928;DHT22;11128;51.096;17.190;2023-05-19T22:51:35;12.90;1.00
21928;DHT22;11128;51.096;17.190;2023-05-19T22:56:37;12.90;99.90
21928;DHT22;11128;51.096;17.190;2023-05-19T23:01:38;12.90;1.00
21928;DHT22;11128;51.096;17.190;2023-05-19T23:06:39;12.90;1.00
21928;DHT22;11128;51.096;17.190;2023-05-19T23:11:41;12.90;74.90
21928;DHT22;11128;51.096;17.190;2023-05-19T23:16:42;12.80;99.90
21928;DHT22;11128;51.096;17.190;2023-05-19T23:21:43;12.80;99.90
21928;DHT22;11128;51.096;17.190;2023-05-19T23:26:45;12.70;99.90
21928;DHT22;11128;51.096;17.190;2023-05-19T23:31:47;12.70;99.90
21928;DHT22;11128;51.096;17.190;2023-05-19T23:36:48;12.80;99.90
21928;DHT22;11128;51.096;17.190;2023-05-19T23:41:50;12.80;99.90
21928;DHT22;11128;51.096;17.190;2023-05-19T23:46:51;12.80;99.90
21928;DHT22;11128;51.096;17.190;2023-05-19T23:51:53;12.70;99.90
21928;DHT22;11128;51.096;17.190;2023-05-19T23:56:54;12.80;92.20
